x

Sand Key, Fl (sanf1) Weather Station

4:50pm - Sat 30th Jul 2016 All times are CDT. -4 hours from GMT.

  • Wind
    6mph, 8mph gusts
  • Air Temp 85°f
  • Sea Pressure 1016.6mb
  • Sand Key, Fl
  • Sand Key, Fl

More Historic Weather Station data

Upgrade to MSW Pro to gain access to the past 30 days of data for over 8000 Wavebouys and Weather Stations around the globe.

Join Pro

Comparision Forecast

View Surf forecast
   
Sat 07/30 4:50pm 6 8 mph 1016.6mb 85f
3:50pm 7 9 mph 1017mb 85f
2:50pm 8 9 mph 1017.8mb 85f
1:50pm 8 9 mph 1018.4mb 85f
12:50pm 7 9 mph 1018.8mb 85f
11:50am 5 6 mph 1019.1mb 85f
10:50am 6 7 mph 1018.7mb 84f
9:50am 7 8 mph 1018.6mb 84f
8:50am 9 10 mph 1018.4mb 84f
7:50am 8 10 mph 1017.7mb 84f
6:50am 9 11 mph 1017.1mb 84f
5:50am 7 8 mph 1016.7mb 83f
4:50am 7 8 mph 1016.6mb 83f
3:50am 7 9 mph 1016.7mb 84f
2:50am 8 9 mph 1016.9mb 84f
1:50am 6 7 mph 1017.3mb 84f
12:50am 7 8 mph 1017.7mb 84f
Fri 07/29 11:50pm 10 13 mph 1018mb 84f
10:50pm 7 8 mph 1018.3mb 85f
9:50pm 6 7 mph 1018mb 85f
8:50pm 6 7 mph 1017.2mb 85f
7:50pm 5 6 mph 1017.1mb 85f
6:50pm 5 6 mph 1017.1mb 85f
5:50pm 6 7 mph 1016.8mb 85f
4:50pm 7 9 mph 1017.2mb 85f
3:50pm 6 9 mph 1017.7mb 85f
2:50pm 8 9 mph 1017.8mb 85f
1:50pm 9 11 mph 1018.3mb 85f
12:50pm 10 13 mph 1018.7mb 85f
11:50am 10 11 mph 1019.1mb 84f
10:50am 10 13 mph 1018.9mb 84f
9:50am 10 11 mph 1018.7mb 84f
8:50am 9 10 mph 1018.4mb 84f
7:50am 9 10 mph 1017.6mb 84f
6:50am 10 11 mph 1017.1mb 83f
5:50am  -  mph 1017mb 83f
4:50am  -  3 mph 1016.9mb 83f
3:50am  -  mph 1017.1mb 84f
2:50am 7 10 mph 1016.9mb 84f
1:50am  -  mph 1017.3mb 84f
12:50am 15 17 mph 1017.4mb 84f
Thu 07/28 11:50pm 16 20 mph 1017.7mb 84f
10:50pm 17 21 mph 1017.8mb 84f
9:50pm 17 21 mph 1017.3mb 84f
8:50pm 15 17 mph 1016.8mb 84f
7:50pm 15 17 mph 1016mb 84f
6:50pm 16 17 mph 1016.1mb 84f
5:50pm 15 18 mph 1016.3mb 84f
4:50pm 15 17 mph 1016.5mb 84f
3:50pm 15 17 mph 1016.5mb 84f
2:50pm 14 16 mph 1017.1mb 84f
1:50pm 15 17 mph 1017.6mb 83f
12:50pm 15 17 mph 1018.4mb 83f
11:50am 11 13 mph 1018.3mb 82f
10:50am 16 18 mph 1018.8mb 81f
9:50am 13 16 mph 1018.6mb 82f
8:50am 16 20 mph 1017.8mb 82f
7:50am 14 18 mph 1017.4mb 80f
6:50am 11 14 mph 1017.1mb 84f
5:50am 13 14 mph 1016.6mb 84f
4:50am 13 14 mph 1016.1mb 84f
3:50am 14 16 mph 1016.2mb 84f
2:50am 15 17 mph 1016.5mb 84f
1:50am 16 18 mph 1016.9mb 85f
12:50am 17 21 mph 1017.4mb 85f
Wed 07/27 11:50pm 18 21 mph 1017.3mb 85f
10:50pm 17 20 mph 1017mb 84f
9:50pm 17 20 mph 1017.2mb 85f
8:50pm 22 24 mph 1016.4mb 85f
7:50pm 22 26 mph 1016.5mb 85f
6:50pm 21 23 mph 1015.9mb 85f
5:50pm 20 23 mph 1016mb 85f
4:50pm 18 22 mph 1016.1mb 85f
3:50pm 21 24 mph 1016.6mb 84f
2:50pm 17 20 mph 1017.2mb 83f
1:50pm 17 20 mph 1017.9mb 83f
12:50pm 17 21 mph 1018.4mb 83f
11:50am 15 17 mph 1018.7mb 82f
10:50am 17 18 mph 1018.4mb 83f
9:50am 21 23 mph 1018.4mb 82f
8:50am 21 23 mph 1018mb 80f
7:50am 21 23 mph 1018.3mb 80f
6:50am 23 24 mph 1017mb 79f
5:50am 17 20 mph 1017.1mb 78f
4:50am 20 23 mph 1016.4mb 82f
3:50am 14 17 mph 1016.4mb 84f
2:50am 17 20 mph 1016.6mb 84f
1:50am 17 20 mph 1017.1mb 84f
12:50am 18 21 mph 1017.4mb 83f
Tue 07/26 11:50pm 20 22 mph 1017.8mb 84f
10:50pm 21 22 mph 1017.5mb 85f
9:50pm 20 23 mph 1017.1mb 84f